Time;durP1;ratioP1;P1;durP2;ratioP2;P2;SDS_P1;SDS_P2;PMS_P1;PMS_P2;Temp;Humidity;BMP_temperature;BMP_pressure;BME280_temperature;BME280_humidity;BME280_pressure;Samples;Min_cycle;Max_cycle;Signal;HPM_P1;HPM_P2
2022/07/05 00:00:41;;;;;;;6.32;3.53;;;;;;;13.44;68.87;98967.53;4136196;28;20033;-71
2022/07/05 00:02:41;;;;;;;3.95;2.90;;;;;;;13.48;68.19;98966.38;4136080;28;20041;-71
2022/07/05 00:04:42;;;;;;;4.32;3.92;;;;;;;13.45;69.05;98966.38;4136080;28;20034;-71
2022/07/05 00:09:02;;;;;;;4.95;3.00;;;;;;;13.50;67.71;98971.56;4135947;28;20068;-71
2022/07/05 00:11:03;;;;;;;4.20;2.92;;;;;;;13.46;68.20;98968.75;4136833;28;20037;-71
2022/07/05 00:13:04;;;;;;;4.28;3.30;;;;;;;13.40;68.28;98973.06;4135308;28;20104;-71
2022/07/05 00:15:05;;;;;;;5.35;3.22;;;;;;;13.30;69.01;98971.00;4136965;28;20034;-71
2022/07/05 00:17:06;;;;;;;11.05;4.25;;;;;;;13.19;70.05;98970.91;4135732;28;20080;-71
2022/07/05 00:19:06;;;;;;;4.95;3.10;;;;;;;13.09;70.84;98965.25;4135260;28;20414;-71
2022/07/05 00:21:07;;;;;;;4.60;3.38;;;;;;;13.05;70.87;98970.75;4135689;28;20030;-71
2022/07/05 00:23:07;;;;;;;3.92;3.20;;;;;;;12.99;70.80;98958.41;4135582;28;20025;-71
2022/07/05 00:25:08;;;;;;;4.97;3.53;;;;;;;12.90;71.51;98971.78;4137193;28;20049;-71
2022/07/05 00:27:08;;;;;;;3.75;3.03;;;;;;;12.87;71.58;98967.81;4134970;28;20382;-71
2022/07/05 00:29:08;;;;;;;4.70;3.40;;;;;;;12.83;72.21;98975.31;4134444;28;20026;-70
2022/07/05 00:31:09;;;;;;;3.50;3.10;;;;;;;12.77;73.47;98965.72;4135749;28;20034;-70
2022/07/05 00:33:09;;;;;;;4.20;3.30;;;;;;;12.74;73.25;98965.66;4136488;28;20116;-71
2022/07/05 00:35:10;;;;;;;3.58;2.67;;;;;;;12.69;74.16;98972.38;4137402;28;20087;-70
2022/07/05 00:37:10;;;;;;;4.25;3.00;;;;;;;12.66;74.39;98973.16;4135556;28;20034;-71
2022/07/05 00:39:11;;;;;;;4.65;3.60;;;;;;;12.60;74.26;98966.31;4135389;28;20029;-71
2022/07/05 00:41:11;;;;;;;4.45;3.00;;;;;;;12.59;74.28;98967.50;4134884;28;20044;-70
2022/07/05 00:43:12;;;;;;;4.53;2.72;;;;;;;12.52;75.24;98976.56;4136095;28;20069;-70
2022/07/05 00:45:12;;;;;;;3.50;2.85;;;;;;;12.49;74.96;98970.94;4136826;28;20088;-70
2022/07/05 00:47:13;;;;;;;4.53;2.97;;;;;;;12.57;73.94;98975.41;4135114;28;20128;-70
2022/07/05 00:49:13;;;;;;;5.03;2.75;;;;;;;12.56;73.80;98971.03;4134987;28;20040;-70
2022/07/05 00:51:14;;;;;;;4.93;3.20;;;;;;;12.49;73.54;98966.19;4136727;28;20046;-70
2022/07/05 00:53:14;;;;;;;3.70;2.58;;;;;;;12.42;74.39;98971.69;4138097;28;20029;-70
2022/07/05 00:55:15;;;;;;;3.40;2.55;;;;;;;12.36;74.12;98975.97;4134593;28;20422;-70
2022/07/05 00:57:18;;;;;;;6.45;3.22;;;;;;;12.26;74.56;98971.09;4135054;28;20719;-70
2022/07/05 00:59:18;;;;;;;8.70;3.53;;;;;;;12.23;75.09;98974.59;4136014;28;20072;-70
2022/07/05 01:01:19;;;;;;;3.90;2.75;;;;;;;12.14;74.99;98977.66;4135155;28;20048;-70
2022/07/05 01:03:19;;;;;;;6.00;2.75;;;;;;;12.06;75.58;98976.75;4136237;28;20447;-70
2022/07/05 01:05:21;;;;;;;3.72;2.88;;;;;;;12.01;75.52;98962.44;4136344;28;20034;-70
2022/07/05 01:07:23;;;;;;;5.07;3.20;;;;;;;11.95;76.18;98978.59;4136637;28;20030;-70
2022/07/05 01:09:24;;;;;;;4.03;3.40;;;;;;;11.90;76.84;98972.56;4137405;28;20600;-70
2022/07/05 01:11:24;;;;;;;3.17;2.78;;;;;;;11.88;77.05;98977.69;4138205;28;20331;-70
2022/07/05 01:13:25;;;;;;;3.50;3.10;;;;;;;11.80;78.30;98968.47;4140069;28;20373;-70
2022/07/05 01:15:26;;;;;;;3.47;2.80;;;;;;;11.77;78.75;98971.97;4138532;28;20501;-70
2022/07/05 01:17:27;;;;;;;4.43;2.88;;;;;;;11.70;77.65;98967.13;4137567;28;20080;-70
2022/07/05 01:19:27;;;;;;;3.53;2.70;;;;;;;11.65;78.63;98972.97;4137133;28;20548;-70
2022/07/05 01:21:28;;;;;;;3.92;3.03;;;;;;;11.59;78.55;98966.16;4139755;28;20446;-70
2022/07/05 01:23:31;;;;;;;4.32;3.05;;;;;;;11.56;79.01;98969.66;4139500;28;20030;-70
2022/07/05 01:25:31;;;;;;;3.67;2.63;;;;;;;11.51;79.26;98968.03;4137934;28;20030;-70
2022/07/05 01:27:32;;;;;;;3.85;3.25;;;;;;;11.43;79.67;98959.97;4139540;28;20061;-70
2022/07/05 01:29:32;;;;;;;4.13;2.92;;;;;;;11.40;80.28;98966.25;4137073;28;20289;-70
2022/07/05 01:31:36;;;;;;;4.90;2.90;;;;;;;11.35;80.14;98963.81;4138599;28;20033;-70
2022/07/05 01:33:36;;;;;;;5.85;3.40;;;;;;;11.29;80.71;98960.53;4139301;28;20470;-70
2022/07/05 01:35:36;;;;;;;3.83;2.55;;;;;;;11.30;79.06;98958.56;4139199;28;20121;-70
2022/07/05 01:37:38;;;;;;;4.03;3.17;;;;;;;11.27;79.11;98951.81;4138642;28;20135;-70
2022/07/05 01:39:39;;;;;;;3.78;3.00;;;;;;;11.27;78.98;98957.34;4137417;28;20037;-70
2022/07/05 01:41:39;;;;;;;3.38;2.70;;;;;;;11.25;79.38;98960.50;4139813;28;20117;-70
2022/07/05 01:43:40;;;;;;;3.92;3.35;;;;;;;11.24;79.05;98961.66;4139088;28;20025;-70
2022/07/05 01:45:41;;;;;;;4.50;3.25;;;;;;;11.16;79.90;98962.69;4138988;28;20062;-70
2022/07/05 01:47:48;;;;;;;3.33;3.03;;;;;;;11.09;81.15;98956.22;4137945;28;20044;-70
2022/07/05 01:49:51;;;;;;;5.05;3.33;;;;;;;11.11;79.77;98960.25;4137345;28;20462;-70
2022/07/05 01:51:57;;;;;;;3.80;2.97;;;;;;;11.07;80.04;98956.59;4138488;28;20088;-70
2022/07/05 01:53:58;;;;;;;3.50;2.88;;;;;;;11.14;78.44;98956.72;4139282;28;20034;-70
2022/07/05 01:56:03;;;;;;;3.58;3.28;;;;;;;11.06;78.90;98952.25;4136526;28;20030;-70
2022/07/05 01:58:03;;;;;;;3.75;2.97;;;;;;;11.07;79.32;98947.50;4138092;28;20465;-70
2022/07/05 02:00:04;;;;;;;5.82;3.22;;;;;;;11.01;78.62;98952.56;4136526;28;20117;-70
2022/07/05 02:02:06;;;;;;;3.30;2.83;;;;;;;10.98;80.02;98953.28;4137261;28;20426;-70
2022/07/05 02:04:09;;;;;;;3.67;3.00;;;;;;;10.92;80.22;98954.75;4137426;28;20026;-70
2022/07/05 02:06:10;;;;;;;4.55;2.67;;;;;;;10.91;78.76;98953.16;4137252;28;21188;-70
2022/07/05 02:08:11;;;;;;;3.45;2.65;;;;;;;11.01;78.45;98960.88;4137972;28;20069;-70
2022/07/05 02:10:11;;;;;;;3.75;2.75;;;;;;;10.96;79.08;98952.88;4136689;28;20088;-70
2022/07/05 02:12:12;;;;;;;6.15;3.13;;;;;;;10.85;78.92;98955.47;4138858;28;20026;-70
2022/07/05 02:14:12;;;;;;;3.40;2.92;;;;;;;10.78;80.06;98960.84;4138709;28;20025;-70
2022/07/05 02:16:13;;;;;;;4.22;2.88;;;;;;;10.71;80.12;98960.72;4137254;28;20049;-70
2022/07/05 02:18:13;;;;;;;4.13;2.83;;;;;;;10.65;81.03;98956.66;4136496;28;20113;-70
2022/07/05 02:20:13;;;;;;;3.28;2.78;;;;;;;10.66;81.02;98959.03;4137019;28;20382;-70
2022/07/05 02:22:14;;;;;;;3.65;3.20;;;;;;;10.66;80.90;98961.00;4138321;28;20520;-70
2022/07/05 02:24:14;;;;;;;4.43;3.50;;;;;;;10.66;80.67;98952.72;4137798;28;20086;-70
2022/07/05 02:26:15;;;;;;;3.53;3.13;;;;;;;10.66;80.02;98950.75;4137758;28;20026;-70
2022/07/05 02:28:15;;;;;;;3.53;2.92;;;;;;;10.64;80.98;98964.16;4138546;28;20034;-70
2022/07/05 02:30:16;;;;;;;5.90;3.38;;;;;;;10.59;81.42;98960.88;4137023;28;20037;-70
2022/07/05 02:32:16;;;;;;;4.40;3.30;;;;;;;10.51;82.43;98970.19;4138391;28;20147;-70
2022/07/05 02:34:16;;;;;;;4.78;3.35;;;;;;;10.44;84.46;98965.34;4138052;28;20030;-70
2022/07/05 02:36:17;;;;;;;3.50;3.20;;;;;;;10.39;84.29;98966.44;4137732;28;20375;-70
2022/07/05 02:38:17;;;;;;;4.15;3.58;;;;;;;10.36;84.97;98967.19;4137075;28;20028;-70
2022/07/05 02:40:18;;;;;;;4.43;3.13;;;;;;;10.33;84.61;98967.88;4136867;28;20048;-70
2022/07/05 02:42:18;;;;;;;3.70;3.20;;;;;;;10.35;82.40;98965.56;4138613;28;20034;-70
2022/07/05 02:44:18;;;;;;;4.18;3.10;;;;;;;10.40;82.28;98970.00;4137208;28;20603;-70
2022/07/05 02:46:19;;;;;;;3.45;3.03;;;;;;;10.35;82.17;98968.34;4137181;28;20282;-70
2022/07/05 02:48:19;;;;;;;4.50;2.83;;;;;;;10.29;83.19;98964.25;4136780;28;20056;-70
2022/07/05 02:50:20;;;;;;;4.30;3.20;;;;;;;10.24;83.11;98974.81;4138365;28;20037;-70
2022/07/05 02:52:20;;;;;;;4.10;3.20;;;;;;;10.21;82.60;98981.03;4137211;28;20097;-70
2022/07/05 02:54:20;;;;;;;4.97;3.42;;;;;;;10.20;82.35;98984.97;4135270;28;20034;-70
2022/07/05 02:56:21;;;;;;;4.60;3.47;;;;;;;10.11;83.10;98979.66;4136905;28;20379;-70
2022/07/05 02:58:21;;;;;;;3.75;3.17;;;;;;;10.08;85.01;98980.38;4138225;28;20124;-70
2022/07/05 03:00:21;;;;;;;4.10;3.25;;;;;;;10.05;84.16;98981.91;4137924;28;20495;-70
2022/07/05 03:02:22;;;;;;;5.78;3.22;;;;;;;10.10;82.18;98973.34;4130549;28;20109;-70
2022/07/05 03:04:23;;;;;;;5.65;3.45;;;;;;;10.08;82.60;98980.38;4136990;28;20061;-70
2022/07/05 03:06:23;;;;;;;4.75;3.47;;;;;;;10.02;83.25;98973.53;4137789;28;20045;-70
2022/07/05 03:08:23;;;;;;;4.30;3.03;;;;;;;10.07;82.25;98984.28;4136147;28;20437;-70
2022/07/05 03:10:25;;;;;;;4.22;2.75;;;;;;;10.03;84.46;98987.00;4135751;28;20037;-70
2022/07/05 03:12:25;;;;;;;3.97;3.50;;;;;;;10.00;85.72;98979.41;4136427;28;20157;-70
2022/07/05 03:14:26;;;;;;;4.18;3.17;;;;;;;10.00;84.40;98978.59;4137908;28;20061;-70
2022/07/05 03:16:26;;;;;;;4.55;3.30;;;;;;;9.96;85.42;98977.75;4137624;28;20553;-70
2022/07/05 03:18:26;;;;;;;5.28;3.30;;;;;;;9.93;85.06;98972.91;4137017;28;20029;-70
2022/07/05 03:20:27;;;;;;;3.45;3.15;;;;;;;9.98;83.64;98973.44;4135191;28;20034;-70
2022/07/05 03:22:27;;;;;;;5.45;3.45;;;;;;;10.04;82.11;98977.53;4137667;28;20038;-70
2022/07/05 03:24:27;;;;;;;4.93;3.58;;;;;;;10.08;82.73;98985.91;4138365;28;20053;-70
2022/07/05 03:26:28;;;;;;;4.57;3.30;;;;;;;10.06;82.76;98986.25;4137711;28;20057;-70
2022/07/05 03:28:28;;;;;;;5.60;3.33;;;;;;;10.01;83.72;98977.44;4138166;28;20045;-70
2022/07/05 03:30:28;;;;;;;3.58;3.28;;;;;;;9.96;83.81;98995.13;4136018;28;20508;-70
2022/07/05 03:32:29;;;;;;;4.68;3.53;;;;;;;9.99;83.25;98991.63;4133281;28;20467;-70
2022/07/05 03:34:29;;;;;;;4.50;3.30;;;;;;;10.05;81.90;98989.41;4136918;28;20227;-70
2022/07/05 03:36:30;;;;;;;5.95;3.65;;;;;;;10.09;81.34;98977.25;4136361;28;20080;-70
2022/07/05 03:38:30;;;;;;;6.82;3.60;;;;;;;10.27;80.36;98979.63;4134691;28;20032;-70
2022/07/05 03:40:30;;;;;;;4.68;3.10;;;;;;;10.39;79.60;98980.25;4135796;28;20354;-70
2022/07/05 03:42:31;;;;;;;6.35;3.80;;;;;;;10.52;81.77;98988.44;4133443;28;20092;-70
2022/07/05 03:44:32;;;;;;;4.43;3.50;;;;;;;10.53;80.58;98990.81;4133238;28;20041;-70
2022/07/05 03:46:32;;;;;;;3.80;3.00;;;;;;;10.50;80.22;98988.78;4136261;28;20139;-70
2022/07/05 03:48:33;;;;;;;7.85;3.88;;;;;;;10.35;82.94;98993.25;4134043;28;20060;-70
2022/07/05 03:50:33;;;;;;;4.55;3.60;;;;;;;10.29;82.37;98996.66;4135613;28;20033;-70
2022/07/05 03:52:34;;;;;;;4.32;3.40;;;;;;;10.28;81.26;98992.28;4135787;28;20472;-70
2022/07/05 03:54:34;;;;;;;4.15;3.65;;;;;;;10.25;82.63;99004.84;4134781;28;20121;-70
2022/07/05 03:56:35;;;;;;;5.88;3.70;;;;;;;10.20;83.53;98999.59;4136053;28;20061;-70
2022/07/05 03:58:35;;;;;;;5.20;3.90;;;;;;;10.23;81.74;98995.34;4134686;28;20025;-70
2022/07/05 04:00:35;;;;;;;6.22;4.60;;;;;;;10.24;82.79;98996.94;4134316;28;20543;-70
2022/07/05 04:02:36;;;;;;;8.38;4.05;;;;;;;10.24;83.26;99002.47;4135148;28;20064;-70
2022/07/05 04:04:36;;;;;;;6.63;3.75;;;;;;;10.21;84.74;98989.34;4133534;28;20445;-70
2022/07/05 04:06:36;;;;;;;9.73;4.22;;;;;;;10.29;83.29;99008.50;4136771;28;20037;-70
2022/07/05 04:08:37;;;;;;;7.03;4.15;;;;;;;10.31;83.62;99008.16;4135182;28;20141;-70
2022/07/05 04:10:37;;;;;;;6.68;3.40;;;;;;;10.35;84.37;99004.31;4132650;28;20030;-70
2022/07/05 04:12:38;;;;;;;4.90;3.88;;;;;;;10.41;83.36;99002.81;4134464;28;20030;-70
2022/07/05 04:14:38;;;;;;;8.20;3.85;;;;;;;10.53;81.81;99001.09;4134475;28;20052;-70
2022/07/05 04:16:38;;;;;;;7.63;3.80;;;;;;;10.64;82.83;99008.44;4135728;28;20371;-70
2022/07/05 04:18:39;;;;;;;8.52;4.35;;;;;;;10.67;83.37;99013.25;4131843;28;20030;-70
2022/07/05 04:20:39;;;;;;;4.57;3.17;;;;;;;10.76;82.09;99013.03;4134943;28;20045;-70
2022/07/05 04:22:40;;;;;;;4.40;3.35;;;;;;;10.80;81.78;99013.06;4133019;28;20030;-70
2022/07/05 04:26:59;;;;;;;8.48;3.83;;;;;;;10.89;80.77;99013.63;4133646;28;20060;-70
2022/07/05 04:28:59;;;;;;;4.28;3.88;;;;;;;10.94;81.03;99018.88;4133919;28;20446;-70
2022/07/05 04:30:59;;;;;;;5.78;3.85;;;;;;;11.01;81.54;99009.91;4134712;28;20455;-70
2022/07/05 04:33:00;;;;;;;7.88;4.03;;;;;;;11.08;82.49;99016.34;4131589;28;20524;-70
2022/07/05 04:35:00;;;;;;;9.25;3.90;;;;;;;11.13;81.28;99007.75;4136653;28;20065;-70
2022/07/05 04:37:00;;;;;;;4.55;3.40;;;;;;;11.28;79.56;99022.66;4133688;28;20117;-70
2022/07/05 04:39:01;;;;;;;8.52;3.58;;;;;;;11.39;78.32;99008.97;4131877;28;20422;-70
2022/07/05 04:41:01;;;;;;;8.13;4.20;;;;;;;11.50;78.80;99021.03;4136000;28;20351;-70
2022/07/05 04:43:01;;;;;;;5.82;4.25;;;;;;;11.59;79.01;99016.06;4136339;28;20038;-70
2022/07/05 04:45:03;;;;;;;7.93;3.90;;;;;;;11.70;79.83;99019.78;4130920;28;20258;-70
2022/07/05 04:47:04;;;;;;;7.13;3.90;;;;;;;11.80;78.61;99016.41;4133887;28;20044;-70
2022/07/05 04:49:04;;;;;;;5.68;4.00;;;;;;;11.94;77.98;99017.78;4134003;28;20042;-70
2022/07/05 04:51:04;;;;;;;7.70;3.92;;;;;;;12.03;78.01;99018.31;4134232;28;20404;-70
2022/07/05 04:53:05;;;;;;;8.88;4.25;;;;;;;12.15;77.61;99026.41;4133494;28;20061;-70
2022/07/05 04:55:06;;;;;;;5.63;3.70;;;;;;;12.26;77.59;99027.38;4129702;28;20037;-70
2022/07/05 04:57:06;;;;;;;8.88;3.70;;;;;;;12.40;76.88;99028.72;4133030;28;20490;-70
2022/07/05 04:59:06;;;;;;;5.05;3.17;;;;;;;12.55;74.96;99036.03;4135394;28;20097;-70
2022/07/05 05:01:07;;;;;;;7.00;3.83;;;;;;;12.68;75.68;99037.41;4049694;28;20116;-70
2022/07/05 05:03:07;;;;;;;6.18;4.38;;;;;;;12.77;75.67;99034.34;4135225;28;20049;-70
2022/07/05 05:05:08;;;;;;;6.32;4.15;;;;;;;12.88;75.90;99033.28;4135148;28;20100;-70
2022/07/05 05:07:09;;;;;;;4.93;3.97;;;;;;;12.98;75.87;99036.53;4134779;28;20031;-70
2022/07/05 05:09:09;;;;;;;8.77;3.95;;;;;;;13.04;76.34;99027.50;4135327;28;20038;-70
2022/07/05 05:11:09;;;;;;;4.63;3.72;;;;;;;13.12;75.75;99042.25;4135745;28;20026;-70
2022/07/05 05:13:10;;;;;;;6.72;3.50;;;;;;;13.19;74.73;99045.94;4133206;28;20133;-70
2022/07/05 05:15:10;;;;;;;3.50;3.05;;;;;;;13.32;74.42;99040.09;4134401;28;20289;-70
2022/07/05 05:17:11;;;;;;;9.52;3.75;;;;;;;13.39;73.99;99049.28;4135048;28;20676;-70
2022/07/05 05:19:11;;;;;;;8.90;4.32;;;;;;;13.43;73.83;99041.00;4132814;28;20033;-70
2022/07/05 05:21:12;;;;;;;17.02;4.38;;;;;;;13.50;72.80;99032.72;4135317;28;20035;-70
2022/07/05 05:23:12;;;;;;;5.90;3.92;;;;;;;13.60;72.49;99042.34;4136222;28;20450;-70
2022/07/05 05:25:13;;;;;;;4.28;3.88;;;;;;;13.67;72.90;99045.97;4135312;28;20531;-70
2022/07/05 05:27:14;;;;;;;4.88;4.10;;;;;;;13.72;72.66;99048.38;4134139;28;20041;-70
2022/07/05 05:29:14;;;;;;;4.95;3.78;;;;;;;13.81;73.50;99039.72;4135133;28;20030;-70
2022/07/05 05:31:14;;;;;;;4.72;3.58;;;;;;;13.87;73.06;99040.94;4132047;28;20049;-70
2022/07/05 05:33:15;;;;;;;4.68;3.30;;;;;;;13.98;72.42;99055.75;4136160;28;20466;-70
2022/07/05 05:35:20;;;;;;;4.25;3.38;;;;;;;14.06;71.88;99049.03;4135232;28;20248;-70
2022/07/05 05:37:20;;;;;;;5.82;3.63;;;;;;;14.08;72.69;99047.88;4134535;28;20038;-70
2022/07/05 05:39:21;;;;;;;4.05;3.45;;;;;;;14.06;72.63;99049.03;4135105;28;20116;-69
2022/07/05 05:41:21;;;;;;;5.90;3.50;;;;;;;14.19;71.42;99045.94;4136369;28;20075;-70
2022/07/05 05:43:21;;;;;;;5.65;3.80;;;;;;;14.22;71.72;99053.50;4136422;28;20113;-70
2022/07/05 05:45:22;;;;;;;5.10;4.40;;;;;;;14.22;72.38;99054.28;4135886;28;20358;-70
2022/07/05 05:47:23;;;;;;;6.40;3.55;;;;;;;14.25;71.44;99059.09;4135891;28;20117;-70
2022/07/05 05:49:23;;;;;;;4.22;3.65;;;;;;;14.20;72.47;99050.31;4135503;28;20049;-70
2022/07/05 05:51:24;;;;;;;4.97;3.97;;;;;;;14.15;72.47;99059.84;4135931;28;20157;-70
2022/07/05 05:53:24;;;;;;;5.28;3.92;;;;;;;14.09;72.66;99053.03;4137464;28;20164;-70
2022/07/05 05:55:26;;;;;;;4.22;3.63;;;;;;;14.08;72.58;99059.00;4138956;28;20300;-70
2022/07/05 05:57:27;;;;;;;7.38;3.75;;;;;;;14.24;72.30;99065.06;4139163;28;20033;-70
2022/07/05 05:59:27;;;;;;;5.60;3.72;;;;;;;14.28;72.18;99066.66;4139575;28;20038;-70
2022/07/05 06:01:27;;;;;;;5.07;3.80;;;;;;;14.39;71.96;99065.91;4139536;28;20950;-70
2022/07/05 06:03:28;;;;;;;7.07;4.03;;;;;;;14.50;72.23;99066.81;4138377;28;20099;-70
2022/07/05 06:05:28;;;;;;;5.35;3.70;;;;;;;14.67;71.60;99060.53;4138262;28;20561;-70
2022/07/05 06:07:29;;;;;;;4.40;4.00;;;;;;;14.80;72.44;99075.69;4138665;28;20493;-70
2022/07/05 06:09:29;;;;;;;4.45;3.97;;;;;;;14.89;71.23;99076.16;4138826;28;20021;-70
2022/07/05 06:11:30;;;;;;;5.90;3.78;;;;;;;14.97;70.55;99073.38;4137628;28;20026;-70
2022/07/05 06:13:30;;;;;;;6.82;3.97;;;;;;;15.17;71.23;99078.22;4138216;28;20029;-70
2022/07/05 06:15:31;;;;;;;5.63;4.13;;;;;;;15.44;70.60;99072.31;4139010;28;20030;-70
2022/07/05 06:17:36;;;;;;;5.80;3.65;;;;;;;15.43;69.70;99077.09;4138529;28;20453;-70
2022/07/05 06:19:36;;;;;;;5.18;3.65;;;;;;;15.49;69.80;99077.50;4137875;28;20061;-70
2022/07/05 06:21:37;;;;;;;5.10;3.90;;;;;;;15.52;69.01;99067.53;4138540;28;20053;-70
2022/07/05 06:23:37;;;;;;;4.38;3.28;;;;;;;15.62;69.04;99066.75;4138939;28;20026;-70
2022/07/05 06:25:37;;;;;;;4.07;3.25;;;;;;;15.75;69.19;99073.56;4137909;28;20129;-70
2022/07/05 06:27:43;;;;;;;6.68;3.83;;;;;;;15.77;69.50;99073.94;4138378;28;20030;-70
2022/07/05 06:29:43;;;;;;;5.22;3.38;;;;;;;15.87;68.39;99080.72;4138030;28;20045;-70
2022/07/05 06:31:43;;;;;;;5.78;3.75;;;;;;;15.97;68.29;99077.13;4137333;28;20041;-70
2022/07/05 06:33:44;;;;;;;5.55;3.78;;;;;;;15.91;68.50;99073.16;4138693;28;20144;-70
2022/07/05 06:35:44;;;;;;;4.10;3.45;;;;;;;16.16;68.73;99081.50;4138998;28;20034;-70
2022/07/05 06:37:57;;;;;;;5.82;3.25;;;;;;;16.18;67.72;99077.09;4138856;28;20052;-70
2022/07/05 06:39:57;;;;;;;3.92;2.95;;;;;;;16.20;67.25;99082.28;4137809;28;20029;-70
2022/07/05 06:41:58;;;;;;;3.63;2.97;;;;;;;16.20;67.22;99080.28;4138720;28;20073;-70
2022/07/05 06:43:58;;;;;;;2.90;2.70;;;;;;;16.35;67.59;99083.06;4137305;28;20036;-71
2022/07/05 06:45:59;;;;;;;4.35;2.95;;;;;;;16.51;65.90;99077.84;4138314;28;20065;-71
2022/07/05 06:48:05;;;;;;;3.72;3.03;;;;;;;16.55;64.91;99081.44;4138274;28;20329;-70
2022/07/05 06:50:06;;;;;;;3.33;2.75;;;;;;;16.65;63.64;99068.63;4137950;28;20526;-71
2022/07/05 06:52:06;;;;;;;3.47;3.15;;;;;;;16.84;64.22;99076.56;4137830;28;20022;-71
2022/07/05 06:54:07;;;;;;;3.65;2.83;;;;;;;16.79;64.27;99074.97;4139146;28;20048;-71
2022/07/05 06:56:07;;;;;;;4.28;3.00;;;;;;;16.87;62.70;99074.94;4138834;28;20445;-71
2022/07/05 06:58:08;;;;;;;3.90;3.10;;;;;;;16.86;62.85;99068.56;4138389;28;20104;-71
2022/07/05 07:00:10;;;;;;;4.03;3.20;;;;;;;16.96;61.62;99072.50;4136485;28;20331;-71
2022/07/05 07:02:10;;;;;;;5.93;3.07;;;;;;;17.11;60.00;99074.03;4139075;28;20253;-71
2022/07/05 07:04:10;;;;;;;2.85;2.33;;;;;;;17.22;60.26;99072.00;4137443;28;20132;-71
2022/07/05 07:06:11;;;;;;;2.92;2.40;;;;;;;17.21;59.02;99064.81;4138771;28;20037;-71
2022/07/05 07:10:30;;;;;;;6.18;2.53;;;;;;;17.48;58.80;99065.03;4138226;28;20494;-71
2022/07/05 07:12:30;;;;;;;4.18;3.38;;;;;;;17.58;59.62;99066.94;4138195;28;20030;-71
2022/07/05 07:14:30;;;;;;;3.60;2.50;;;;;;;17.63;58.22;99066.53;4137881;28;20185;-71
2022/07/05 07:16:31;;;;;;;2.90;2.60;;;;;;;17.60;58.83;99075.72;4138290;28;20030;-71
2022/07/05 07:18:32;;;;;;;3.38;2.47;;;;;;;17.69;59.07;99061.25;4137519;28;20409;-71
2022/07/05 07:20:32;;;;;;;5.65;2.80;;;;;;;17.80;60.16;99066.81;4137584;28;20088;-71
2022/07/05 07:22:33;;;;;;;6.70;2.53;;;;;;;17.90;58.50;99072.31;4137572;28;20494;-71
2022/07/05 07:24:33;;;;;;;3.15;2.05;;;;;;;18.03;58.80;99067.00;4138351;28;20100;-71
2022/07/05 07:27:02;;;;;;;4.78;2.70;;;;;;;18.17;57.34;99074.47;4138536;28;20845;-71
2022/07/05 07:28:54;;;;;;;2.35;2.13;;;;;;;18.30;57.04;99072.75;4136131;28;20061;-71
2022/07/05 07:30:54;;;;;;;3.22;2.20;;;;;;;18.39;56.08;99070.25;4137281;28;20030;-71
2022/07/05 07:32:55;;;;;;;3.78;2.15;;;;;;;18.48;55.67;99083.78;4136786;28;20030;-71
2022/07/05 07:34:55;;;;;;;3.88;2.40;;;;;;;18.64;56.31;99072.00;4137514;28;20446;-71
2022/07/05 07:36:56;;;;;;;2.42;2.20;;;;;;;18.78;55.55;99064.25;4136973;28;20033;-71
2022/07/05 07:38:57;;;;;;;3.22;2.25;;;;;;;18.83;54.45;99076.19;4136816;28;20497;-71
2022/07/05 07:40:57;;;;;;;2.55;2.15;;;;;;;18.96;54.41;99068.84;4138270;28;20416;-71
2022/07/05 07:42:58;;;;;;;2.63;2.35;;;;;;;19.05;54.47;99071.91;4137003;28;20033;-71
2022/07/05 07:44:59;;;;;;;4.25;2.17;;;;;;;19.07;53.88;99061.88;4138079;28;20405;-71
2022/07/05 07:46:59;;;;;;;2.53;2.20;;;;;;;19.12;53.51;99065.44;4137988;28;20137;-71
2022/07/05 07:48:59;;;;;;;2.20;2.00;;;;;;;19.20;53.78;99066.91;4136421;28;20030;-71
2022/07/05 07:51:00;;;;;;;4.90;1.90;;;;;;;19.26;52.15;99073.63;4137012;28;20461;-71
2022/07/05 07:53:00;;;;;;;3.72;2.50;;;;;;;19.39;52.19;99069.03;4136280;28;20481;-71
2022/07/05 07:55:01;;;;;;;4.28;2.05;;;;;;;19.52;51.25;99075.63;4138725;28;20030;-71
2022/07/05 07:57:04;;;;;;;4.55;1.95;;;;;;;19.49;49.50;99070.09;4137322;28;20034;-72
2022/07/05 07:59:05;;;;;;;4.28;1.83;;;;;;;19.59;50.12;99072.75;4136602;28;20118;-71
2022/07/05 08:01:10;;;;;;;1.85;1.73;;;;;;;19.66;50.10;99077.47;4137202;28;20423;-71
2022/07/05 08:03:11;;;;;;;1.70;1.60;;;;;;;19.70;49.46;99066.22;4138520;28;20030;-71
2022/07/05 08:05:12;;;;;;;2.75;1.80;;;;;;;19.72;50.27;99066.56;4136917;28;20131;-71
2022/07/05 08:07:12;;;;;;;3.85;2.13;;;;;;;19.84;49.24;99072.34;4137275;28;20857;-71
2022/07/05 08:09:13;;;;;;;2.67;1.60;;;;;;;19.93;48.57;99072.59;4137376;28;20172;-71
2022/07/05 08:11:15;;;;;;;2.10;1.90;;;;;;;20.06;47.84;99064.38;4135938;28;20045;-71
2022/07/05 08:13:15;;;;;;;3.17;1.90;;;;;;;20.18;49.06;99072.19;4137161;28;20599;-71
2022/07/05 08:15:16;;;;;;;2.67;1.88;;;;;;;20.17;47.90;99069.81;4138017;28;20064;-71
2022/07/05 08:17:16;;;;;;;4.00;1.70;;;;;;;20.27;47.67;99071.63;4136692;28;20617;-71
2022/07/05 08:21:38;;;;;;;3.58;1.50;;;;;;;20.26;46.98;99070.03;4136859;28;20109;-71
2022/07/05 08:23:38;;;;;;;3.53;1.42;;;;;;;20.39;46.92;99067.41;4137948;28;20400;-71
2022/07/05 08:25:38;;;;;;;1.80;1.70;;;;;;;20.52;47.64;99071.22;4137167;28;20025;-71
2022/07/05 08:27:39;;;;;;;3.25;1.73;;;;;;;20.62;48.38;99066.59;4137216;28;20037;-71
2022/07/05 08:29:39;;;;;;;3.35;1.50;;;;;;;20.79;46.45;99061.84;4135804;28;20493;-71
2022/07/05 08:31:46;;;;;;;3.05;1.50;;;;;;;20.81;45.21;99054.56;4136715;28;20025;-71
2022/07/05 08:33:47;;;;;;;2.97;1.52;;;;;;;20.84;46.07;99052.88;4136722;28;20125;-71
2022/07/05 08:35:47;;;;;;;1.38;1.10;;;;;;;20.89;43.73;99058.00;4136329;28;20065;-71
2022/07/05 08:37:48;;;;;;;2.63;1.48;;;;;;;20.90;42.47;99045.53;4136654;28;20030;-71
2022/07/05 08:39:49;;;;;;;1.58;1.20;;;;;;;20.93;43.87;99047.47;4135910;28;20054;-71
2022/07/05 08:41:51;;;;;;;1.88;1.30;;;;;;;21.06;43.76;99048.41;4135695;28;20468;-71
2022/07/05 08:43:51;;;;;;;2.70;1.10;;;;;;;21.00;42.35;99050.13;4137415;28;20026;-71
2022/07/05 08:45:58;;;;;;;3.55;1.30;;;;;;;21.09;43.76;99058.78;4137114;28;20137;-71
2022/07/05 08:48:00;;;;;;;1.58;1.13;;;;;;;21.17;43.29;99053.78;4137058;28;20029;-71
2022/07/05 08:50:02;;;;;;;2.47;1.50;;;;;;;21.23;43.75;99052.84;4135692;28;20120;-71
2022/07/05 08:52:04;;;;;;;2.60;1.00;;;;;;;21.25;43.18;99041.13;4135230;28;20087;-71
2022/07/05 08:54:05;;;;;;;3.57;1.40;;;;;;;21.35;42.63;99044.97;4136206;28;20481;-71
2022/07/05 08:56:07;;;;;;;4.78;1.55;;;;;;;21.23;42.75;99041.59;4136264;28;20025;-71
2022/07/05 08:58:07;;;;;;;;;;;;;;;21.39;43.33;99046.47;4137955;28;20042;-71
2022/07/05 09:00:08;;;;;;;1.37;1.20;;;;;;;21.29;42.00;99039.88;4135777;28;20230;-71
2022/07/05 09:02:13;;;;;;;5.63;3.17;;;;;;;21.34;42.22;99040.56;4136981;28;20752;-71
2022/07/05 09:04:15;;;;;;;1.65;1.20;;;;;;;21.42;42.41;99031.53;4135710;28;20040;-71
2022/07/05 09:06:19;;;;;;;2.95;1.45;;;;;;;21.41;42.01;99026.34;4135374;28;20116;-71
2022/07/05 09:08:20;;;;;;;1.75;1.38;;;;;;;21.48;42.65;99037.44;4136185;28;20030;-71
2022/07/05 09:10:23;;;;;;;3.05;1.50;;;;;;;21.61;41.70;99031.91;4136140;28;20112;-71
2022/07/05 09:12:23;;;;;;;3.42;1.58;;;;;;;21.67;41.52;99039.38;4136826;28;20590;-71
2022/07/05 09:14:25;;;;;;;4.78;2.55;;;;;;;21.76;41.25;99038.75;4135966;28;20034;-71
2022/07/05 09:16:26;;;;;;;2.07;1.70;;;;;;;21.83;41.63;99036.56;4137608;28;20030;-71
2022/07/05 09:18:50;;;;;;;2.67;2.03;;;;;;;21.55;41.26;99034.44;4134142;28;20030;-71
2022/07/05 09:21:10;;;;;;;2.28;1.80;;;;;;;21.66;41.63;99034.19;4135302;28;20037;-71
2022/07/05 09:23:13;;;;;;;2.72;1.85;;;;;;;21.61;42.25;99029.88;4136688;28;20891;-71
2022/07/05 09:25:27;;;;;;;1.83;1.60;;;;;;;21.85;41.52;99036.13;4135325;28;20034;-71
2022/07/05 09:27:27;;;;;;;2.25;1.50;;;;;;;21.95;40.88;99028.66;4137981;28;20137;-71
2022/07/05 09:29:28;;;;;;;3.75;1.70;;;;;;;21.98;40.86;99027.75;4140035;28;20133;-71
2022/07/05 09:31:33;;;;;;;1.60;1.48;;;;;;;21.95;40.51;99023.81;4139948;28;20103;-71
2022/07/05 09:33:48;;;;;;;2.33;1.70;;;;;;;22.11;39.31;99023.00;4139596;28;20049;-71
2022/07/05 09:36:01;;;;;;;2.40;1.63;;;;;;;22.32;39.58;99027.28;4139907;28;20022;-71
2022/07/05 09:38:03;;;;;;;3.33;1.70;;;;;;;22.54;38.67;99033.91;4139144;28;20029;-71
2022/07/05 09:40:03;;;;;;;2.72;1.70;;;;;;;22.73;38.26;99029.34;4138594;28;20048;-71